createdAt,value
2016-05-09T00:00:18.168Z,0
2016-05-09T00:01:18.468Z,0
2016-05-09T00:02:18.457Z,0
2016-05-09T00:03:18.318Z,0
2016-05-09T00:04:18.290Z,0
2016-05-09T00:05:18.276Z,0
2016-05-09T00:06:18.404Z,0
2016-05-09T00:07:18.392Z,0
2016-05-09T00:08:18.379Z,0
2016-05-09T00:09:18.240Z,0
2016-05-09T00:10:18.228Z,0
2016-05-09T00:11:18.355Z,0
2016-05-09T00:12:18.342Z,0
2016-05-09T00:13:18.329Z,0
2016-05-09T00:14:18.176Z,0
2016-05-09T00:15:18.163Z,0
2016-05-09T00:16:18.306Z,0
2016-05-09T00:17:18.308Z,0
2016-05-09T00:18:18.280Z,0
2016-05-09T00:19:18.267Z,0
2016-05-09T00:20:18.255Z,0
2016-05-09T00:21:18.273Z,0
2016-05-09T00:22:18.244Z,0
2016-05-09T00:23:18.231Z,0
2016-05-09T00:24:18.233Z,0
2016-05-09T00:25:18.205Z,0
2016-05-09T00:26:18.192Z,0
2016-05-09T00:27:18.196Z,0
2016-05-09T00:28:18.010Z,0
2016-05-09T00:29:18.638Z,0
2016-05-09T00:30:18.157Z,0
2016-05-09T00:31:17.987Z,0
2016-05-09T00:32:18.146Z,0
2016-05-09T00:33:18.118Z,0
2016-05-09T00:34:17.807Z,0
2016-05-09T00:35:18.092Z,0
2016-05-09T00:36:18.079Z,0
2016-05-09T00:37:17.972Z,0
2016-05-09T00:38:18.068Z,0
2016-05-09T00:39:18.056Z,0
2016-05-09T00:40:17.887Z,0
2016-05-09T00:41:17.873Z,0
2016-05-09T00:42:18.017Z,0
2016-05-09T00:43:18.035Z,0
2016-05-09T00:44:17.929Z,0
2016-05-09T00:45:17.993Z,0
2016-05-09T00:46:18.012Z,0
2016-05-09T00:47:17.967Z,0
2016-05-09T00:48:17.955Z,0
2016-05-09T00:49:17.800Z,0
2016-05-09T00:50:17.945Z,0
2016-05-09T00:51:17.931Z,0
2016-05-09T00:52:17.934Z,0
2016-05-09T00:53:17.749Z,0
2016-05-09T00:54:17.893Z,0
2016-05-09T00:55:17.880Z,0
2016-05-09T00:56:17.866Z,0
2016-05-09T00:57:17.854Z,0
2016-05-09T00:58:17.529Z,0
2016-05-09T00:59:18.110Z,0
2016-05-09T01:00:17.846Z,0
2016-05-09T01:01:17.849Z,0
2016-05-09T01:02:17.665Z,0
2016-05-09T01:03:17.792Z,0
2016-05-09T01:04:17.795Z,0
2016-05-09T01:05:17.782Z,0
2016-05-09T01:06:17.784Z,0
2016-05-09T01:07:17.740Z,0
2016-05-09T01:08:17.742Z,0
2016-05-09T01:09:17.746Z,0
2016-05-09T01:10:17.718Z,0
2016-05-09T01:11:17.720Z,0
2016-05-09T01:12:17.706Z,0
2016-05-09T01:13:17.725Z,0
2016-05-09T01:14:17.805Z,0
2016-05-09T01:15:17.668Z,0
2016-05-09T01:16:17.515Z,0
2016-05-09T01:17:17.642Z,0
2016-05-09T01:18:17.629Z,0
2016-05-09T01:19:17.475Z,0
2016-05-09T01:20:17.603Z,0
2016-05-09T01:21:17.590Z,0
2016-05-09T01:22:17.437Z,0
2016-05-09T01:23:17.424Z,0
2016-05-09T01:24:17.567Z,0
2016-05-09T01:25:17.554Z,0
2016-05-09T01:26:17.572Z,0
2016-05-09T01:27:17.528Z,0
2016-05-09T01:28:17.516Z,0
2016-05-09T01:29:18.924Z,0
2016-05-09T01:30:17.505Z,0
2016-05-09T01:31:17.476Z,0
2016-05-09T01:32:17.307Z,0
2016-05-09T01:33:17.466Z,0
2016-05-09T01:34:17.297Z,0
2016-05-09T01:35:17.143Z,0
2016-05-09T01:36:17.427Z,0
2016-05-09T01:37:17.273Z,0
2016-05-09T01:38:17.402Z,0
2016-05-09T01:39:17.390Z,0
2016-05-09T01:40:17.376Z,0
2016-05-09T01:41:17.379Z,0
2016-05-09T01:42:17.365Z,0
2016-05-09T01:43:17.539Z,0
2016-05-09T01:44:17.590Z,0
2016-05-09T01:45:17.030Z,0
2016-05-09T01:46:17.158Z,0
2016-05-09T01:47:17.301Z,0
2016-05-09T01:48:17.303Z,0
2016-05-09T01:49:17.291Z,0
2016-05-09T01:50:17.277Z,0
2016-05-09T01:51:17.265Z,0
2016-05-09T01:52:17.095Z,0
2016-05-09T01:53:17.098Z,0
2016-05-09T01:54:17.225Z,0
2016-05-09T01:55:17.213Z,0
2016-05-09T01:56:17.231Z,0
2016-05-09T01:57:17.203Z,0
2016-05-09T01:58:17.190Z,0
2016-05-09T01:59:17.568Z,0
2016-05-09T02:00:17.195Z,0
2016-05-09T02:01:17.010Z,0
2016-05-09T02:02:16.982Z,0
2016-05-09T02:03:17.125Z,0
2016-05-09T02:04:17.128Z,0
2016-05-09T02:05:16.959Z,0
2016-05-09T02:06:17.101Z,0
2016-05-09T02:07:17.120Z,0
2016-05-09T02:08:16.921Z,0
2016-05-09T02:09:17.063Z,0
2016-05-09T02:10:17.035Z,0
2016-05-09T02:11:17.053Z,0
2016-05-09T02:12:17.024Z,0
2016-05-09T02:13:17.011Z,0
2016-05-09T02:14:17.343Z,0
2016-05-09T02:15:17.001Z,0
2016-05-09T02:16:16.973Z,0
2016-05-09T02:17:16.850Z,0
2016-05-09T02:18:16.837Z,0
2016-05-09T02:19:16.949Z,0
2016-05-09T02:20:16.764Z,0
2016-05-09T02:21:16.783Z,0
2016-05-09T02:22:16.583Z,0
2016-05-09T02:23:16.928Z,0
2016-05-09T02:24:16.891Z,0
2016-05-09T02:25:16.878Z,0
2016-05-09T02:26:16.710Z,0
2016-05-09T02:27:16.838Z,0
2016-05-09T02:28:16.840Z,0
2016-05-09T02:29:17.373Z,0
2016-05-09T02:30:16.704Z,0
2016-05-09T02:31:16.817Z,0
2016-05-09T02:32:16.648Z,0
2016-05-09T02:33:16.776Z,0
2016-05-09T02:34:16.621Z,0
2016-05-09T02:35:16.796Z,0
2016-05-09T02:36:16.580Z,0
2016-05-09T02:37:16.942Z,0
2016-05-09T02:38:16.726Z,0
2016-05-09T02:39:16.714Z,0
2016-05-09T02:40:16.700Z,0
2016-05-09T02:41:16.687Z,0
2016-05-09T02:42:16.690Z,0
2016-05-09T02:43:16.661Z,0
2016-05-09T02:44:16.805Z,0
2016-05-09T02:45:16.651Z,0
2016-05-09T02:46:16.622Z,0
2016-05-09T02:47:16.625Z,0
2016-05-09T02:48:16.597Z,0
2016-05-09T02:49:16.616Z,0
2016-05-09T02:50:16.508Z,0
2016-05-09T02:51:16.574Z,0
2016-05-09T02:52:16.560Z,0
2016-05-09T02:53:16.579Z,0
2016-05-09T02:54:16.378Z,0
2016-05-09T02:55:16.522Z,0
2016-05-09T02:56:16.368Z,0
2016-05-09T02:57:16.512Z,0
2016-05-09T02:58:16.498Z,0
2016-05-09T02:59:16.439Z,0
2016-05-09T03:00:16.316Z,0
2016-05-09T03:01:16.444Z,0
2016-05-09T03:02:16.431Z,0
2016-05-09T03:03:16.434Z,0
2016-05-09T03:04:16.436Z,0
2016-05-09T03:05:16.423Z,0
2016-05-09T03:06:16.348Z,0
2016-05-09T03:07:16.304Z,0
2016-05-09T03:08:16.416Z,0
2016-05-09T03:09:16.373Z,0
2016-05-09T03:10:16.187Z,0
2016-05-09T03:11:16.174Z,0
2016-05-09T03:12:16.333Z,0
2016-05-09T03:13:16.305Z,0
2016-05-09T03:14:16.620Z,0
2016-05-09T03:15:16.310Z,0
2016-05-09T03:16:16.281Z,0
2016-05-09T03:17:16.097Z,0
2016-05-09T03:18:16.114Z,0
2016-05-09T03:19:16.227Z,0
2016-05-09T03:20:16.058Z,0
2016-05-09T03:21:16.061Z,0
2016-05-09T03:22:15.891Z,0
2016-05-09T03:23:16.035Z,0
2016-05-09T03:24:15.865Z,0
2016-05-09T03:25:16.165Z,0
2016-05-09T03:26:15.855Z,0
2016-05-09T03:27:15.999Z,0
2016-05-09T03:28:16.142Z,0
2016-05-09T03:29:16.129Z,0
2016-05-09T03:30:16.101Z,0
2016-05-09T03:31:15.946Z,0
2016-05-09T03:32:16.121Z,0
2016-05-09T03:33:16.076Z,0
2016-05-09T03:34:15.971Z,0
2016-05-09T03:35:16.051Z,0
2016-05-09T03:36:16.038Z,0
2016-05-09T03:37:16.025Z,0
2016-05-09T03:38:16.013Z,0
2016-05-09T03:39:16.000Z,0
2016-05-09T03:40:15.971Z,0
2016-05-09T03:41:15.817Z,0
2016-05-09T03:42:15.961Z,0
2016-05-09T03:43:15.822Z,0
2016-05-09T03:44:15.810Z,0
2016-05-09T03:45:15.937Z,0
2016-05-09T03:46:15.909Z,0
2016-05-09T03:47:15.896Z,5
2016-05-09T03:48:15.883Z,5
2016-05-09T03:49:30.808Z,5
2016-05-09T03:50:17.169Z,5
2016-05-09T03:51:15.938Z,5
2016-05-09T03:52:15.691Z,5
2016-05-09T03:53:15.818Z,5
2016-05-09T03:54:15.821Z,5
2016-05-09T03:55:15.668Z,5
2016-05-09T03:56:15.780Z,5
2016-05-09T03:57:15.782Z,10
2016-05-09T03:58:15.801Z,10
2016-05-09T03:59:15.771Z,10
2016-05-09T04:00:15.760Z,10
2016-05-09T04:01:15.746Z,10
2016-05-09T04:02:15.733Z,10
2016-05-09T04:03:15.720Z,10
2016-05-09T04:04:15.535Z,10
2016-05-09T04:05:15.694Z,15
2016-05-09T04:06:15.526Z,15
2016-05-09T04:07:15.653Z,15
2016-05-09T04:08:15.656Z,15
2016-05-09T04:09:15.468Z,15
2016-05-09T04:10:15.455Z,15
2016-05-09T04:11:15.616Z,15
2016-05-09T04:12:15.444Z,15
2016-05-09T04:13:15.589Z,20
2016-05-09T04:14:15.703Z,20
2016-05-09T04:15:15.578Z,20
2016-05-09T04:16:15.564Z,20
2016-05-09T04:17:15.536Z,20
2016-05-09T04:18:15.367Z,20
2016-05-09T04:19:15.511Z,20
2016-05-09T04:20:15.483Z,25
2016-05-09T04:21:15.485Z,25
2016-05-09T04:22:15.455Z,25
2016-05-09T04:23:15.474Z,25
2016-05-09T04:24:15.305Z,25
2016-05-09T04:25:15.433Z,25
2016-05-09T04:26:15.436Z,25
2016-05-09T04:27:15.407Z,25
2016-05-09T04:28:15.394Z,30
2016-05-09T04:29:15.382Z,30
2016-05-09T04:30:15.368Z,30
2016-05-09T04:31:15.371Z,30
2016-05-09T04:32:15.343Z,30
2016-05-09T04:33:15.329Z,30
2016-05-09T04:34:15.160Z,30
2016-05-09T04:35:15.319Z,30
2016-05-09T04:36:15.290Z,35
2016-05-09T04:37:15.168Z,35
2016-05-09T04:38:15.296Z,35
2016-05-09T04:39:15.112Z,35
2016-05-09T04:40:15.082Z,35
2016-05-09T04:41:15.132Z,35
2016-05-09T04:42:15.259Z,35
2016-05-09T04:43:15.231Z,35
2016-05-09T04:44:15.703Z,40
2016-05-09T04:45:15.050Z,40
2016-05-09T04:46:15.193Z,40
2016-05-09T04:47:15.164Z,40
2016-05-09T04:48:15.150Z,40
2016-05-09T04:49:15.138Z,40
2016-05-09T04:50:15.126Z,40
2016-05-09T04:51:14.971Z,40
2016-05-09T04:52:15.100Z,45
2016-05-09T04:53:15.211Z,45
2016-05-09T04:54:14.933Z,45
2016-05-09T04:55:15.076Z,45
2016-05-09T04:56:15.048Z,45
2016-05-09T04:57:15.050Z,45
2016-05-09T04:58:14.881Z,45
2016-05-09T04:59:15.571Z,45
2016-05-09T05:00:15.011Z,45
2016-05-09T05:01:14.842Z,50
2016-05-09T05:02:14.830Z,50
2016-05-09T05:03:14.988Z,50
2016-05-09T05:04:14.960Z,50
2016-05-09T05:05:14.946Z,50
2016-05-09T05:06:14.934Z,50
2016-05-09T05:07:14.921Z,50
2016-05-09T05:08:14.908Z,50
2016-05-09T05:09:14.895Z,50
2016-05-09T05:10:14.757Z,50
2016-05-09T05:11:15.088Z,55
2016-05-09T05:12:14.856Z,55
2016-05-09T05:13:14.859Z,55
2016-05-09T05:14:15.424Z,55
2016-05-09T05:15:14.864Z,55
2016-05-09T05:16:14.508Z,55
2016-05-09T05:17:14.822Z,55
2016-05-09T05:18:14.810Z,55
2016-05-09T05:19:14.812Z,55
2016-05-09T05:20:14.769Z,55
2016-05-09T05:21:14.458Z,55
2016-05-09T05:22:14.445Z,60
2016-05-09T05:23:14.588Z,60
2016-05-09T05:24:14.717Z,60
2016-05-09T05:25:14.626Z,60
2016-05-09T05:26:14.738Z,60
2016-05-09T05:27:14.708Z,60
2016-05-09T05:28:14.368Z,60
2016-05-09T05:29:16.074Z,60
2016-05-09T05:30:14.499Z,60
2016-05-09T05:31:14.642Z,60
2016-05-09T05:32:14.644Z,60
2016-05-09T05:33:14.459Z,65
2016-05-09T05:34:14.446Z,65
2016-05-09T05:35:14.605Z,65
2016-05-09T05:36:14.577Z,65
2016-05-09T05:37:14.565Z,65
2016-05-09T05:38:14.754Z,65
2016-05-09T05:39:14.382Z,65
2016-05-09T05:40:14.540Z,65
2016-05-09T05:41:14.528Z,65
2016-05-09T05:42:14.515Z,65
2016-05-09T05:43:14.362Z,65
2016-05-09T05:44:14.598Z,65
2016-05-09T05:45:14.320Z,65
2016-05-09T05:46:14.479Z,65
2016-05-09T05:47:14.467Z,70
2016-05-09T05:48:14.453Z,70
2016-05-09T05:49:14.425Z,70
2016-05-09T05:50:14.411Z,70
2016-05-09T05:51:14.398Z,70
2016-05-09T05:52:14.400Z,70
2016-05-09T05:53:14.388Z,70
2016-05-09T05:54:14.376Z,70
2016-05-09T05:55:14.363Z,70
2016-05-09T05:56:14.350Z,70
2016-05-09T05:57:14.336Z,70
2016-05-09T05:58:14.183Z,70
2016-05-09T05:59:14.341Z,70
2016-05-09T06:00:14.313Z,70
2016-05-09T06:01:14.343Z,75
2016-05-09T06:02:14.203Z,75
2016-05-09T06:03:14.405Z,75
2016-05-09T06:04:14.280Z,75
2016-05-09T06:05:14.312Z,75
2016-05-09T06:06:14.314Z,75
2016-05-09T06:07:14.333Z,75
2016-05-09T06:08:14.475Z,75
2016-05-09T06:09:14.478Z,75
2016-05-09T06:10:14.341Z,75
2016-05-09T06:11:14.349Z,75
2016-05-09T06:12:14.482Z,75
2016-05-09T06:13:14.335Z,75
2016-05-09T06:14:14.583Z,75
2016-05-09T06:15:14.451Z,75
2016-05-09T06:16:14.471Z,75
2016-05-09T06:17:14.444Z,75
2016-05-09T06:18:14.293Z,75
2016-05-09T06:19:14.282Z,75
2016-05-09T06:20:14.411Z,75
2016-05-09T06:21:14.414Z,75
2016-05-09T06:22:14.387Z,75
2016-05-09T06:23:14.437Z,75
2016-05-09T06:24:14.377Z,75
2016-05-09T06:25:14.366Z,75
2016-05-09T06:26:14.197Z,75
2016-05-09T06:27:14.356Z,80
2016-05-09T06:28:14.203Z,80
2016-05-09T06:29:15.861Z,80
2016-05-09T06:30:14.317Z,80
2016-05-09T06:31:14.304Z,80
2016-05-09T06:32:14.291Z,80
2016-05-09T06:33:14.137Z,80
2016-05-09T06:34:14.265Z,80
2016-05-09T06:35:14.268Z,80
2016-05-09T06:36:14.239Z,80
2016-05-09T06:37:14.633Z,80
2016-05-09T06:38:14.213Z,80
2016-05-09T06:39:14.216Z,80
2016-05-09T06:40:14.203Z,85
2016-05-09T06:41:14.768Z,85
2016-05-09T06:42:14.021Z,85
2016-05-09T06:43:14.274Z,85
2016-05-09T06:44:15.448Z,85
2016-05-09T06:45:13.999Z,85
2016-05-09T06:46:14.141Z,85
2016-05-09T06:47:14.129Z,85
2016-05-09T06:48:13.974Z,85
2016-05-09T06:49:13.806Z,85
2016-05-09T06:50:14.105Z,85
2016-05-09T06:51:14.092Z,85
2016-05-09T06:52:14.079Z,85
2016-05-09T06:53:14.066Z,90
2016-05-09T06:54:14.069Z,90
2016-05-09T06:55:14.040Z,90
2016-05-09T06:56:14.028Z,90
2016-05-09T06:57:14.031Z,90
2016-05-09T06:58:14.017Z,90
2016-05-09T06:59:13.911Z,90
2016-05-09T07:00:13.992Z,90
2016-05-09T07:01:13.978Z,90
2016-05-09T07:02:13.825Z,90
2016-05-09T07:03:13.983Z,95
2016-05-09T07:04:13.955Z,95
2016-05-09T07:05:13.974Z,95
2016-05-09T07:06:13.944Z,95
2016-05-09T07:07:13.933Z,95
2016-05-09T07:08:13.919Z,95
2016-05-09T07:09:13.906Z,95
2016-05-09T07:10:13.908Z,95
2016-05-09T07:11:13.880Z,95
2016-05-09T07:12:13.883Z,95
2016-05-09T07:13:13.871Z,100
2016-05-09T07:14:13.717Z,100
2016-05-09T07:15:13.844Z,100
2016-05-09T07:16:13.847Z,100
2016-05-09T07:17:13.818Z,100
2016-05-09T07:18:13.665Z,105
2016-05-09T07:19:13.652Z,105
2016-05-09T07:20:13.654Z,105
2016-05-09T07:21:13.626Z,105
2016-05-09T07:22:13.645Z,105
2016-05-09T07:23:13.772Z,105
2016-05-09T07:24:13.603Z,110
2016-05-09T07:25:13.762Z,110
2016-05-09T07:26:13.749Z,560
2016-05-09T07:27:13.736Z,1050
2016-05-09T07:28:13.723Z,995
2016-05-09T07:29:13.742Z,935
2016-05-09T07:30:13.557Z,990
2016-05-09T07:31:13.559Z,1135
2016-05-09T07:32:13.717Z,1290
2016-05-09T07:33:13.690Z,1375
2016-05-09T07:34:13.677Z,1315
2016-05-09T07:35:13.680Z,1280
2016-05-09T07:36:13.667Z,1275
2016-05-09T07:37:13.356Z,1260
2016-05-09T07:38:13.672Z,1270
2016-05-09T07:39:13.675Z,1330
2016-05-09T07:40:13.489Z,1275
2016-05-09T07:41:13.477Z,1140
2016-05-09T07:42:13.652Z,1170
2016-05-09T07:43:13.482Z,1195
2016-05-09T07:44:13.641Z,1200
2016-05-09T07:45:13.628Z,1240
2016-05-09T07:46:13.630Z,1245
2016-05-09T07:47:13.508Z,1090
2016-05-09T07:48:13.683Z,1010
2016-05-09T07:49:13.467Z,1055
2016-05-09T07:50:13.611Z,1105
2016-05-09T07:51:13.618Z,1160
2016-05-09T07:52:13.465Z,1155
2016-05-09T07:53:13.483Z,950
2016-05-09T07:54:13.626Z,800
2016-05-09T07:55:13.591Z,840
2016-05-09T07:56:13.485Z,905
2016-05-09T07:57:13.472Z,970
2016-05-09T07:58:13.443Z,930
2016-05-09T07:59:13.619Z,765
2016-05-09T08:00:13.605Z,715
2016-05-09T08:01:13.576Z,780
2016-05-09T08:02:13.563Z,845
2016-05-09T08:03:13.582Z,945
2016-05-09T08:04:13.584Z,980
2016-05-09T08:05:18.852Z,1000
2016-05-09T08:06:35.639Z,975
2016-05-09T08:07:32.126Z,1075
2016-05-09T08:08:26.095Z,1420
2016-05-09T08:09:31.226Z,1585
2016-05-09T08:10:20.726Z,1575
2016-05-09T08:11:21.932Z,1575
2016-05-09T08:12:25.325Z,1595
2016-05-09T08:13:13.093Z,1580
2016-05-09T08:14:13.923Z,1500
2016-05-09T08:15:13.411Z,1365
2016-05-09T08:16:13.554Z,1255
2016-05-09T08:17:13.385Z,1300
2016-05-09T08:18:13.560Z,1420
2016-05-09T08:19:13.562Z,1500
2016-05-09T08:20:13.533Z,1575
2016-05-09T08:21:13.568Z,1645
2016-05-09T08:22:13.414Z,1655
2016-05-09T08:23:13.572Z,1575
2016-05-09T08:24:13.561Z,1455
2016-05-09T08:25:13.548Z,1340
2016-05-09T08:26:13.534Z,1275
2016-05-09T08:27:13.553Z,1340
2016-05-09T08:28:13.555Z,1500
2016-05-09T08:29:14.714Z,1625
2016-05-09T08:30:13.264Z,1635
2016-05-09T08:31:13.547Z,1570
2016-05-09T08:32:13.566Z,1465
2016-05-09T08:33:13.553Z,1450
2016-05-09T08:34:13.555Z,1530
2016-05-09T08:35:13.402Z,1580
2016-05-09T08:36:13.265Z,1490
2016-05-09T08:37:14.189Z,1325
2016-05-09T08:38:13.566Z,1230
2016-05-09T08:39:13.568Z,1275
2016-05-09T08:40:13.571Z,1430
2016-05-09T08:41:13.591Z,1615
2016-05-09T08:42:13.249Z,1735
2016-05-09T08:43:13.565Z,1785
2016-05-09T08:44:13.442Z,1825
2016-05-09T08:45:13.570Z,1830
2016-05-09T08:46:13.573Z,1840
2016-05-09T08:47:13.419Z,1835
2016-05-09T08:48:13.578Z,1765
2016-05-09T08:49:13.581Z,1590
2016-05-09T08:50:13.598Z,1430
2016-05-09T08:51:13.289Z,430
2016-05-09T08:52:13.448Z,1505
2016-05-09T08:53:13.592Z,865
2016-05-09T08:54:13.438Z,1840
2016-05-09T08:55:13.597Z,895
2016-05-09T08:56:13.444Z,1460
2016-05-09T08:57:13.602Z,1150
2016-05-09T08:58:13.605Z,925
2016-05-09T08:59:13.311Z,1195
2016-05-09T09:00:13.454Z,1615
2016-05-09T09:01:13.613Z,1225
2016-05-09T09:02:13.444Z,1690
2016-05-09T09:03:13.305Z,1620
2016-05-09T09:04:13.636Z,700
2016-05-09T09:05:13.296Z,840
2016-05-09T09:06:13.610Z,1185
2016-05-09T09:07:13.629Z,850
2016-05-09T09:08:13.615Z,675
2016-05-09T09:09:13.479Z,590
2016-05-09T09:10:13.449Z,550
2016-05-09T09:11:13.623Z,985
2016-05-09T09:12:13.626Z,590
2016-05-09T09:13:13.458Z,655
2016-05-09T09:14:13.320Z,615
2016-05-09T09:15:13.620Z,420
2016-05-09T09:16:13.607Z,535
2016-05-09T09:17:13.625Z,525
2016-05-09T09:18:13.628Z,655
2016-05-09T09:19:13.459Z,1630
2016-05-09T09:20:13.461Z,1450
2016-05-09T09:21:13.464Z,990
2016-05-09T09:22:13.622Z,1150
2016-05-09T09:23:13.625Z,1115
2016-05-09T09:24:13.612Z,760
2016-05-09T09:25:13.615Z,715
2016-05-09T09:26:13.602Z,620
2016-05-09T09:27:13.605Z,680
2016-05-09T09:28:13.467Z,705
2016-05-09T09:29:13.907Z,570
2016-05-09T09:30:13.613Z,1030
2016-05-09T09:31:13.599Z,735
2016-05-09T09:32:13.619Z,1220
2016-05-09T09:33:13.605Z,1080
2016-05-09T09:34:13.467Z,1140
2016-05-09T09:35:13.455Z,715
2016-05-09T09:36:13.597Z,970
2016-05-09T09:37:13.600Z,810
2016-05-09T09:38:13.603Z,880
2016-05-09T09:39:13.605Z,915
2016-05-09T09:40:13.296Z,1015
2016-05-09T09:41:13.440Z,1195
2016-05-09T09:42:13.582Z,1270
2016-05-09T09:43:13.601Z,1015
2016-05-09T09:44:13.931Z,670
2016-05-09T09:45:13.482Z,880
2016-05-09T09:46:13.624Z,525
2016-05-09T09:47:13.580Z,655
2016-05-09T09:48:13.599Z,825
2016-05-09T09:49:13.601Z,455
2016-05-09T09:50:13.432Z,595
2016-05-09T09:51:13.591Z,1245
2016-05-09T09:52:13.437Z,1790
2016-05-09T09:53:13.440Z,1235
2016-05-09T09:54:13.568Z,1085
2016-05-09T09:55:13.462Z,1125
2016-05-09T09:56:13.589Z,620
2016-05-09T09:57:13.576Z,805
2016-05-09T09:58:13.594Z,820
2016-05-09T09:59:14.519Z,355
2016-05-09T10:00:13.443Z,330
2016-05-09T10:01:13.414Z,435
2016-05-09T10:02:13.403Z,325
2016-05-09T10:03:13.264Z,295
2016-05-09T10:04:13.423Z,400
2016-05-09T10:05:13.583Z,425
2016-05-09T10:06:13.569Z,420
2016-05-09T10:07:13.415Z,745
2016-05-09T10:08:13.402Z,535
2016-05-09T10:09:13.561Z,490
2016-05-09T10:10:13.563Z,470
2016-05-09T10:11:13.395Z,715
2016-05-09T10:12:13.554Z,315
2016-05-09T10:13:13.604Z,1055
2016-05-09T10:14:14.247Z,450
2016-05-09T10:15:13.546Z,1630
2016-05-09T10:16:13.440Z,1205
2016-05-09T10:17:13.396Z,1965
2016-05-09T10:18:13.398Z,1950
2016-05-09T10:19:13.385Z,2090
2016-05-09T10:20:13.248Z,1915
2016-05-09T10:21:13.547Z,2120
2016-05-09T10:22:13.237Z,2090
2016-05-09T10:23:13.224Z,2090
2016-05-09T10:24:13.539Z,2145
2016-05-09T10:25:13.526Z,2185
2016-05-09T10:26:13.545Z,2165
2016-05-09T10:27:13.547Z,2170
2016-05-09T10:28:13.441Z,2205
2016-05-09T10:29:13.397Z,2240
2016-05-09T10:30:13.400Z,2200
2016-05-09T10:31:13.245Z,2175
2016-05-09T10:32:13.561Z,2185
2016-05-09T10:33:13.391Z,2205
2016-05-09T10:34:13.551Z,2200
2016-05-09T10:35:13.569Z,2175
2016-05-09T10:36:13.572Z,2215
2016-05-09T10:37:13.824Z,2245
2016-05-09T10:38:13.577Z,2220
2016-05-09T10:39:13.579Z,2195
2016-05-09T10:40:13.566Z,2200
2016-05-09T10:41:13.585Z,2250
2016-05-09T10:42:13.604Z,2315
2016-05-09T10:43:13.435Z,2295
2016-05-09T10:44:13.187Z,2260
2016-05-09T10:45:13.612Z,2250
2016-05-09T10:46:13.598Z,2275
2016-05-09T10:47:13.601Z,2285
2016-05-09T10:48:13.448Z,2245
2016-05-09T10:49:13.607Z,2240
2016-05-09T10:50:13.296Z,2265
2016-05-09T10:51:13.628Z,2265
2016-05-09T10:52:13.473Z,2235
2016-05-09T10:53:13.476Z,2155
2016-05-09T10:54:13.495Z,2095
2016-05-09T10:55:13.639Z,2110
2016-05-09T10:56:13.657Z,1935
2016-05-09T10:57:13.659Z,1880
2016-05-09T10:58:13.662Z,1895
2016-05-09T10:59:13.742Z,1995
2016-05-09T11:00:13.573Z,2135
2016-05-09T11:01:13.686Z,2265
2016-05-09T11:02:13.532Z,2315
2016-05-09T11:03:13.675Z,2300
2016-05-09T11:04:13.678Z,2260
2016-05-09T11:05:13.680Z,2280
2016-05-09T11:06:13.699Z,2240
2016-05-09T11:07:13.686Z,2080
2016-05-09T11:08:13.689Z,1815
2016-05-09T11:09:13.722Z,1490
2016-05-09T11:10:13.710Z,1290
2016-05-09T11:11:13.712Z,1235
2016-05-09T11:12:13.715Z,1295
2016-05-09T11:13:13.719Z,1435
2016-05-09T11:14:14.893Z,1575
2016-05-09T11:15:13.583Z,1695
2016-05-09T11:16:13.741Z,1880
2016-05-09T11:17:13.759Z,2030
2016-05-09T11:18:13.590Z,2175
2016-05-09T11:19:13.749Z,2260
2016-05-09T11:20:13.768Z,2305
2016-05-09T11:21:13.801Z,2305
2016-05-09T11:22:13.789Z,2270
2016-05-09T11:23:13.635Z,2230
2016-05-09T11:24:13.607Z,2245
2016-05-09T11:25:13.798Z,2280
2016-05-09T11:26:13.800Z,2300
2016-05-09T11:27:13.803Z,2300
2016-05-09T11:28:13.806Z,2280
2016-05-09T11:29:13.948Z,2295
2016-05-09T11:30:13.825Z,2300
2016-05-09T11:31:13.657Z,2310
2016-05-09T11:32:13.831Z,2230
2016-05-09T11:33:13.662Z,2160
2016-05-09T11:34:13.571Z,2180
2016-05-09T11:35:13.839Z,2245
2016-05-09T11:36:13.842Z,2235
2016-05-09T11:37:13.845Z,2145
2016-05-09T11:38:13.848Z,1950
2016-05-09T11:39:13.694Z,1795
2016-05-09T11:40:13.853Z,1705
2016-05-09T11:41:13.856Z,1730
2016-05-09T11:42:13.858Z,1820
2016-05-09T11:43:13.877Z,1935
2016-05-09T11:44:14.083Z,1990
2016-05-09T11:45:13.866Z,2045
2016-05-09T11:46:13.729Z,2105
2016-05-09T11:47:13.903Z,2195
2016-05-09T11:48:13.750Z,2270
2016-05-09T11:49:13.737Z,2280
2016-05-09T11:50:13.911Z,2265
2016-05-09T11:51:13.757Z,2255
2016-05-09T11:52:13.932Z,2210
2016-05-09T11:53:13.920Z,2205
2016-05-09T11:54:13.923Z,2225
2016-05-09T11:55:13.971Z,2265
2016-05-09T11:56:13.786Z,2265
2016-05-09T11:57:13.945Z,2210
2016-05-09T11:58:13.824Z,2120
2016-05-09T11:59:14.389Z,2060
2016-05-09T12:00:13.953Z,2110
2016-05-09T12:01:13.503Z,2170
2016-05-09T12:02:13.975Z,2210
2016-05-09T12:03:13.993Z,2230
2016-05-09T12:04:13.825Z,2230
2016-05-09T12:05:13.998Z,2240
2016-05-09T12:06:13.985Z,2250
2016-05-09T12:07:13.988Z,2270
2016-05-09T12:08:14.007Z,2270
2016-05-09T12:09:14.009Z,2215
2016-05-09T12:10:13.871Z,2215
2016-05-09T12:11:14.046Z,2185
2016-05-09T12:12:14.016Z,2190
2016-05-09T12:13:14.036Z,2205
2016-05-09T12:14:15.726Z,2240
2016-05-09T12:15:13.869Z,2250
2016-05-09T12:16:14.043Z,2250
2016-05-09T12:17:14.046Z,2240
2016-05-09T12:18:14.065Z,2220
2016-05-09T12:19:13.896Z,2205
2016-05-09T12:20:13.913Z,2225
2016-05-09T12:21:13.916Z,2275
2016-05-09T12:22:14.091Z,2300
2016-05-09T12:23:13.922Z,2300
2016-05-09T12:24:13.940Z,2265
2016-05-09T12:25:13.942Z,2230
2016-05-09T12:26:13.945Z,2175
2016-05-09T12:27:14.104Z,2200
2016-05-09T12:28:13.951Z,2245
2016-05-09T12:29:15.360Z,2260
2016-05-09T12:30:13.956Z,2240
2016-05-09T12:31:13.818Z,2220
2016-05-09T12:32:13.962Z,2190
2016-05-09T12:33:13.981Z,2195
2016-05-09T12:34:14.139Z,2190
2016-05-09T12:35:14.158Z,2175
2016-05-09T12:36:13.910Z,2120
2016-05-09T12:37:14.600Z,2040
2016-05-09T12:38:14.181Z,1965
2016-05-09T12:39:13.839Z,1965
2016-05-09T12:40:14.186Z,1980
2016-05-09T12:41:14.002Z,1990
2016-05-09T12:42:14.036Z,1975
2016-05-09T12:43:14.194Z,2000
2016-05-09T12:44:14.806Z,2095
2016-05-09T12:45:14.044Z,2155
2016-05-09T12:46:14.047Z,2190
2016-05-09T12:47:14.049Z,2150
2016-05-09T12:48:14.224Z,2135
2016-05-09T12:49:16.507Z,2110
2016-05-09T12:50:14.230Z,2050
2016-05-09T12:51:14.622Z,2020
2016-05-09T12:52:14.422Z,2075
2016-05-09T12:53:14.252Z,2120
2016-05-09T12:54:13.973Z,2155
2016-05-09T12:55:13.930Z,2140
2016-05-09T12:56:14.324Z,2040
2016-05-09T12:57:14.263Z,2035
2016-05-09T12:58:14.282Z,1885
2016-05-09T12:59:14.784Z,1870
2016-05-09T13:00:14.271Z,1915
2016-05-09T13:01:14.290Z,1955
2016-05-09T13:02:14.152Z,1975
2016-05-09T13:03:14.295Z,1965
2016-05-09T13:04:14.517Z,1930
2016-05-09T13:05:14.363Z,1925
2016-05-09T13:06:14.647Z,1955
2016-05-09T13:07:14.322Z,2025
2016-05-09T13:08:14.168Z,2055
2016-05-09T13:09:14.217Z,2000
2016-05-09T13:10:14.361Z,1885
2016-05-09T13:11:14.363Z,1770
2016-05-09T13:12:14.194Z,1650
2016-05-09T13:13:14.369Z,1595
2016-05-09T13:14:15.403Z,1720
2016-05-09T13:15:14.344Z,1810
2016-05-09T13:16:14.236Z,1975
2016-05-09T13:17:14.380Z,1970
2016-05-09T13:18:14.241Z,2040
2016-05-09T13:19:14.058Z,1990
2016-05-09T13:20:14.404Z,1945
2016-05-09T13:21:14.407Z,1980
2016-05-09T13:22:14.409Z,2005
2016-05-09T13:23:14.115Z,2025
2016-05-09T13:24:14.101Z,2055
2016-05-09T13:25:14.418Z,2045
2016-05-09T13:26:14.263Z,1970
2016-05-09T13:27:14.438Z,1875
2016-05-09T13:28:14.471Z,1905
2016-05-09T13:29:14.459Z,1930
2016-05-09T13:30:14.462Z,1930
2016-05-09T13:31:14.465Z,1960
2016-05-09T13:32:14.311Z,1940
2016-05-09T13:33:14.485Z,1955
2016-05-09T13:34:14.487Z,1955
2016-05-09T13:35:14.351Z,1965
2016-05-09T13:36:14.525Z,1925
2016-05-09T13:37:15.996Z,1925
2016-05-09T13:38:14.483Z,1935
2016-05-09T13:39:14.345Z,1955
2016-05-09T13:40:14.503Z,1925
2016-05-09T13:41:14.506Z,1890
2016-05-09T13:42:14.509Z,1855
2016-05-09T13:43:14.387Z,1845
2016-05-09T13:44:15.186Z,1770
2016-05-09T13:45:14.408Z,1700
2016-05-09T13:46:14.411Z,1695
2016-05-09T13:47:14.601Z,1705
2016-05-09T13:48:14.432Z,1675
2016-05-09T13:49:14.543Z,1750
2016-05-09T13:50:14.577Z,1770
2016-05-09T13:51:14.440Z,1800
2016-05-09T13:52:14.411Z,1780
2016-05-09T13:53:14.555Z,1770
2016-05-09T13:54:14.557Z,1705
2016-05-09T13:55:14.591Z,1740
2016-05-09T13:56:14.579Z,1675
2016-05-09T13:57:14.597Z,1685
2016-05-09T13:58:14.584Z,1560